Terminal Aerodrome Forecast
Issued by NWS

Home | Current Version | Previous Version | Text Only | Print | Product List | Glossary On
Versions: 1 2 3 4 5 6 7 8 9 10
016
FTUS46 KHNX 250533
TAFMER
TAF
KMER 250533Z 2506/2606 34010KT P6SM BKN120
     FM251600 34015G23KT P6SM BKN120
     FM260000 34010G15KT P6SM SCT200=

USA.gov is the U.S. government's official web portal to all federal, state and local government web resources and services.